sensor_id;sensor_type;location;lat;lon;timestamp;P1;durP1;ratioP1;P2;durP2;ratioP2
29302;SDS011;60019;45.556;12.004;2023-04-01T00:04:08;28.48;;;17.98;;
29302;SDS011;60019;45.556;12.004;2023-04-01T00:10:10;30.50;;;18.85;;
29302;SDS011;60019;45.556;12.004;2023-04-01T00:16:12;24.73;;;17.10;;
29302;SDS011;60019;45.556;12.004;2023-04-01T00:22:14;26.35;;;16.50;;
29302;SDS011;60019;45.556;12.004;2023-04-01T00:28:17;26.17;;;16.95;;
29302;SDS011;60019;45.556;12.004;2023-04-01T00:34:20;22.77;;;16.35;;
29302;SDS011;60019;45.556;12.004;2023-04-01T00:40:29;23.17;;;16.98;;
29302;SDS011;60019;45.556;12.004;2023-04-01T00:46:30;20.27;;;15.48;;
29302;SDS011;60019;45.556;12.004;2023-04-01T00:52:32;20.42;;;14.82;;
29302;SDS011;60019;45.556;12.004;2023-04-01T00:58:35;24.58;;;17.15;;
29302;SDS011;60019;45.556;12.004;2023-04-01T01:04:39;21.38;;;15.98;;
29302;SDS011;60019;45.556;12.004;2023-04-01T01:10:41;19.80;;;15.20;;
29302;SDS011;60019;45.556;12.004;2023-04-01T01:16:50;24.42;;;16.48;;
29302;SDS011;60019;45.556;12.004;2023-04-01T01:35:31;20.67;;;15.55;;
29302;SDS011;60019;45.556;12.004;2023-04-01T01:41:35;21.97;;;15.07;;
29302;SDS011;60019;45.556;12.004;2023-04-01T01:47:39;22.80;;;16.25;;
29302;SDS011;60019;45.556;12.004;2023-04-01T01:53:42;21.65;;;16.73;;
29302;SDS011;60019;45.556;12.004;2023-04-01T01:59:44;24.10;;;16.85;;
29302;SDS011;60019;45.556;12.004;2023-04-01T02:05:55;30.25;;;19.48;;
29302;SDS011;60019;45.556;12.004;2023-04-01T02:12:05;23.45;;;17.20;;
29302;SDS011;60019;45.556;12.004;2023-04-01T02:18:11;22.73;;;16.45;;
29302;SDS011;60019;45.556;12.004;2023-04-01T02:24:14;26.42;;;18.50;;
29302;SDS011;60019;45.556;12.004;2023-04-01T02:30:16;27.40;;;19.65;;
29302;SDS011;60019;45.556;12.004;2023-04-01T02:36:19;25.95;;;18.38;;
29302;SDS011;60019;45.556;12.004;2023-04-01T02:42:20;28.20;;;19.40;;
29302;SDS011;60019;45.556;12.004;2023-04-01T02:48:23;25.63;;;18.13;;
29302;SDS011;60019;45.556;12.004;2023-04-01T02:54:25;24.05;;;17.80;;
29302;SDS011;60019;45.556;12.004;2023-04-01T03:00:27;28.17;;;19.67;;
29302;SDS011;60019;45.556;12.004;2023-04-01T03:06:29;26.15;;;19.15;;
29302;SDS011;60019;45.556;12.004;2023-04-01T03:12:31;24.63;;;18.02;;
29302;SDS011;60019;45.556;12.004;2023-04-01T03:18:32;26.50;;;16.90;;
29302;SDS011;60019;45.556;12.004;2023-04-01T03:24:34;24.75;;;17.90;;
29302;SDS011;60019;45.556;12.004;2023-04-01T03:30:36;25.67;;;18.13;;
29302;SDS011;60019;45.556;12.004;2023-04-01T03:36:38;23.05;;;17.45;;
29302;SDS011;60019;45.556;12.004;2023-04-01T03:42:40;22.05;;;17.13;;
29302;SDS011;60019;45.556;12.004;2023-04-01T03:48:43;24.08;;;17.27;;
29302;SDS011;60019;45.556;12.004;2023-04-01T03:54:45;26.13;;;17.17;;
29302;SDS011;60019;45.556;12.004;2023-04-01T04:00:47;25.85;;;17.73;;
29302;SDS011;60019;45.556;12.004;2023-04-01T04:06:49;27.27;;;18.23;;
29302;SDS011;60019;45.556;12.004;2023-04-01T04:12:53;23.33;;;17.65;;
29302;SDS011;60019;45.556;12.004;2023-04-01T04:18:57;25.55;;;17.95;;
29302;SDS011;60019;45.556;12.004;2023-04-01T04:24:59;24.42;;;16.92;;
29302;SDS011;60019;45.556;12.004;2023-04-01T04:31:01;23.70;;;16.73;;
29302;SDS011;60019;45.556;12.004;2023-04-01T04:37:07;24.27;;;17.08;;
29302;SDS011;60019;45.556;12.004;2023-04-01T04:43:11;25.15;;;16.92;;
29302;SDS011;60019;45.556;12.004;2023-04-01T04:49:13;20.23;;;15.25;;
29302;SDS011;60019;45.556;12.004;2023-04-01T04:55:16;25.65;;;16.98;;
29302;SDS011;60019;45.556;12.004;2023-04-01T05:01:22;18.23;;;14.52;;
29302;SDS011;60019;45.556;12.004;2023-04-01T05:07:25;22.35;;;17.35;;
29302;SDS011;60019;45.556;12.004;2023-04-01T05:13:27;20.65;;;14.93;;
29302;SDS011;60019;45.556;12.004;2023-04-01T05:19:29;21.65;;;14.88;;
29302;SDS011;60019;45.556;12.004;2023-04-01T05:25:31;18.85;;;13.38;;
29302;SDS011;60019;45.556;12.004;2023-04-01T05:31:33;17.33;;;13.57;;
29302;SDS011;60019;45.556;12.004;2023-04-01T05:37:36;16.58;;;12.70;;
29302;SDS011;60019;45.556;12.004;2023-04-01T05:43:39;15.57;;;12.30;;
29302;SDS011;60019;45.556;12.004;2023-04-01T05:50:00;22.98;;;12.60;;
29302;SDS011;60019;45.556;12.004;2023-04-01T05:56:02;15.23;;;12.75;;
29302;SDS011;60019;45.556;12.004;2023-04-01T06:02:10;17.98;;;13.02;;
29302;SDS011;60019;45.556;12.004;2023-04-01T06:08:16;17.92;;;12.43;;
29302;SDS011;60019;45.556;12.004;2023-04-01T06:26:52;15.52;;;11.85;;
29302;SDS011;60019;45.556;12.004;2023-04-01T06:58:57;14.80;;;11.23;;
29302;SDS011;60019;45.556;12.004;2023-04-01T07:05:00;18.00;;;11.40;;
29302;SDS011;60019;45.556;12.004;2023-04-01T07:11:05;14.38;;;11.75;;
29302;SDS011;60019;45.556;12.004;2023-04-01T07:17:17;13.20;;;11.07;;
29302;SDS011;60019;45.556;12.004;2023-04-01T07:23:25;11.82;;;9.63;;
29302;SDS011;60019;45.556;12.004;2023-04-01T07:29:35;13.50;;;9.75;;
29302;SDS011;60019;45.556;12.004;2023-04-01T07:41:59;12.82;;;9.13;;
29302;SDS011;60019;45.556;12.004;2023-04-01T07:48:13;14.70;;;9.30;;
29302;SDS011;60019;45.556;12.004;2023-04-01T07:54:26;12.00;;;9.73;;
29302;SDS011;60019;45.556;12.004;2023-04-01T08:13:11;23.92;;;15.15;;
29302;SDS011;60019;45.556;12.004;2023-04-01T08:32:25;27.23;;;15.90;;
29302;SDS011;60019;45.556;12.004;2023-04-01T08:50:36;24.20;;;14.07;;
29302;SDS011;60019;45.556;12.004;2023-04-01T08:56:57;21.65;;;14.23;;
29302;SDS011;60019;45.556;12.004;2023-04-01T09:40:36;15.15;;;10.40;;
29302;SDS011;60019;45.556;12.004;2023-04-01T09:47:10;12.65;;;9.23;;
29302;SDS011;60019;45.556;12.004;2023-04-01T09:53:19;14.98;;;10.43;;
29302;SDS011;60019;45.556;12.004;2023-04-01T10:43:02;11.68;;;8.10;;
29302;SDS011;60019;45.556;12.004;2023-04-01T10:55:50;9.85;;;6.68;;
29302;SDS011;60019;45.556;12.004;2023-04-01T11:14:52;7.63;;;6.15;;
29302;SDS011;60019;45.556;12.004;2023-04-01T11:40:11;9.95;;;6.05;;
29302;SDS011;60019;45.556;12.004;2023-04-01T11:46:59;7.28;;;5.82;;
29302;SDS011;60019;45.556;12.004;2023-04-01T11:59:13;5.78;;;4.90;;
29302;SDS011;60019;45.556;12.004;2023-04-01T12:11:34;6.40;;;4.68;;
29302;SDS011;60019;45.556;12.004;2023-04-01T12:17:48;6.65;;;4.57;;
29302;SDS011;60019;45.556;12.004;2023-04-01T12:30:24;7.88;;;4.55;;
29302;SDS011;60019;45.556;12.004;2023-04-01T12:36:37;7.18;;;4.90;;
29302;SDS011;60019;45.556;12.004;2023-04-01T12:42:55;8.15;;;5.00;;
29302;SDS011;60019;45.556;12.004;2023-04-01T13:07:55;7.20;;;4.82;;
29302;SDS011;60019;45.556;12.004;2023-04-01T13:44:19;6.20;;;3.83;;
29302;SDS011;60019;45.556;12.004;2023-04-01T13:50:36;5.45;;;4.13;;
29302;SDS011;60019;45.556;12.004;2023-04-01T14:21:33;4.80;;;4.13;;
29302;SDS011;60019;45.556;12.004;2023-04-01T14:59:15;6.95;;;4.90;;
29302;SDS011;60019;45.556;12.004;2023-04-01T15:11:45;5.72;;;5.00;;
29302;SDS011;60019;45.556;12.004;2023-04-01T16:13:32;6.35;;;5.20;;
29302;SDS011;60019;45.556;12.004;2023-04-01T16:19:49;6.38;;;5.75;;
29302;SDS011;60019;45.556;12.004;2023-04-01T16:25:55;10.00;;;6.70;;
29302;SDS011;60019;45.556;12.004;2023-04-01T16:38:26;8.18;;;6.32;;
29302;SDS011;60019;45.556;12.004;2023-04-01T16:44:50;8.13;;;6.20;;
29302;SDS011;60019;45.556;12.004;2023-04-01T16:51:04;8.60;;;6.57;;
29302;SDS011;60019;45.556;12.004;2023-04-01T16:57:16;9.02;;;5.72;;
29302;SDS011;60019;45.556;12.004;2023-04-01T17:09:33;8.23;;;5.88;;
29302;SDS011;60019;45.556;12.004;2023-04-01T17:15:46;8.73;;;6.43;;
29302;SDS011;60019;45.556;12.004;2023-04-01T17:21:54;6.40;;;5.13;;
29302;SDS011;60019;45.556;12.004;2023-04-01T17:53:03;92.30;;;46.30;;
29302;SDS011;60019;45.556;12.004;2023-04-01T17:59:12;77.03;;;38.17;;
29302;SDS011;60019;45.556;12.004;2023-04-01T18:05:30;71.43;;;36.90;;
29302;SDS011;60019;45.556;12.004;2023-04-01T18:11:44;63.33;;;33.55;;
29302;SDS011;60019;45.556;12.004;2023-04-01T18:17:59;56.88;;;29.63;;
29302;SDS011;60019;45.556;12.004;2023-04-01T18:24:14;47.50;;;23.63;;
29302;SDS011;60019;45.556;12.004;2023-04-01T18:30:20;50.72;;;24.48;;
29302;SDS011;60019;45.556;12.004;2023-04-01T19:25:56;303.17;;;152.40;;
29302;SDS011;60019;45.556;12.004;2023-04-01T19:38:04;192.25;;;104.88;;
29302;SDS011;60019;45.556;12.004;2023-04-01T19:44:16;194.00;;;101.35;;
29302;SDS011;60019;45.556;12.004;2023-04-01T19:50:27;159.32;;;89.22;;
29302;SDS011;60019;45.556;12.004;2023-04-01T19:56:33;145.25;;;75.32;;
29302;SDS011;60019;45.556;12.004;2023-04-01T20:02:39;124.88;;;67.70;;
29302;SDS011;60019;45.556;12.004;2023-04-01T20:14:48;100.68;;;59.80;;
29302;SDS011;60019;45.556;12.004;2023-04-01T20:20:55;90.95;;;51.00;;
29302;SDS011;60019;45.556;12.004;2023-04-01T20:27:09;89.22;;;50.30;;
29302;SDS011;60019;45.556;12.004;2023-04-01T20:45:42;66.22;;;37.15;;
29302;SDS011;60019;45.556;12.004;2023-04-01T20:51:47;58.10;;;35.33;;
29302;SDS011;60019;45.556;12.004;2023-04-01T20:57:53;54.35;;;33.90;;
29302;SDS011;60019;45.556;12.004;2023-04-01T21:42:36;41.40;;;25.25;;
29302;SDS011;60019;45.556;12.004;2023-04-01T21:55:14;36.95;;;23.73;;
29302;SDS011;60019;45.556;12.004;2023-04-01T22:08:00;31.02;;;19.17;;
29302;SDS011;60019;45.556;12.004;2023-04-01T22:13:57;30.02;;;19.83;;
29302;SDS011;60019;45.556;12.004;2023-04-01T22:20:23;29.58;;;18.30;;
29302;SDS011;60019;45.556;12.004;2023-04-01T22:32:52;25.63;;;17.30;;
29302;SDS011;60019;45.556;12.004;2023-04-01T22:45:34;21.15;;;15.50;;
29302;SDS011;60019;45.556;12.004;2023-04-01T23:03:50;21.83;;;14.10;;
29302;SDS011;60019;45.556;12.004;2023-04-01T23:09:53;20.75;;;14.98;;
29302;SDS011;60019;45.556;12.004;2023-04-01T23:15:56;24.08;;;15.50;;
29302;SDS011;60019;45.556;12.004;2023-04-01T23:22:21;24.08;;;14.07;;
29302;SDS011;60019;45.556;12.004;2023-04-01T23:34:34;21.42;;;15.27;;
29302;SDS011;60019;45.556;12.004;2023-04-01T23:40:37;23.83;;;14.65;;
29302;SDS011;60019;45.556;12.004;2023-04-01T23:46:39;22.80;;;13.60;;
29302;SDS011;60019;45.556;12.004;2023-04-01T23:52:43;17.70;;;12.63;;
29302;SDS011;60019;45.556;12.004;2023-04-01T23:58:46;19.00;;;13.85;;
